createdAt,value
2022-11-29T00:01:07.713Z,15.40
2022-11-29T00:03:34.644Z,15.70
2022-11-29T00:06:10.031Z,14.77
2022-11-29T00:08:37.075Z,14.90
2022-11-29T00:11:05.523Z,15.88
2022-11-29T00:13:32.126Z,17.48
2022-11-29T00:16:06.704Z,17.02
2022-11-29T00:18:33.776Z,17.77
2022-11-29T00:21:00.902Z,18.48
2022-11-29T00:23:27.408Z,20.17
2022-11-29T00:25:53.957Z,20.25
2022-11-29T00:28:20.419Z,20.73
2022-11-29T00:30:47.346Z,20.35
2022-11-29T00:33:14.016Z,20.38
2022-11-29T00:35:40.459Z,21.42
2022-11-29T00:38:07.041Z,21.98
2022-11-29T00:40:34.155Z,22.08
2022-11-29T00:43:01.788Z,23.10
2022-11-29T00:45:28.299Z,25.38
2022-11-29T00:47:54.850Z,24.02
2022-11-29T00:50:21.412Z,21.70
2022-11-29T00:52:47.919Z,22.83
2022-11-29T00:55:14.672Z,24.08
2022-11-29T00:57:41.526Z,20.58
2022-11-29T01:00:10.776Z,22.75
2022-11-29T01:02:37.489Z,23.23
2022-11-29T01:05:04.255Z,20.95
2022-11-29T01:07:30.900Z,21.60
2022-11-29T01:09:57.397Z,21.92
2022-11-29T01:12:23.899Z,26.70
2022-11-29T01:14:50.348Z,28.55
2022-11-29T01:17:16.849Z,29.65
2022-11-29T01:19:49.292Z,24.92
2022-11-29T01:22:17.283Z,25.63
2022-11-29T01:24:44.035Z,28.95
2022-11-29T01:27:10.839Z,26.05
2022-11-29T01:29:37.387Z,22.33
2022-11-29T01:32:04.136Z,19.83
2022-11-29T01:34:30.692Z,24.10
2022-11-29T01:36:57.508Z,23.15
2022-11-29T01:39:24.066Z,20.48
2022-11-29T01:41:50.580Z,21.02
2022-11-29T01:44:17.021Z,24.50
2022-11-29T01:46:46.026Z,28.73
2022-11-29T01:49:17.777Z,25.45
2022-11-29T01:51:50.398Z,25.77
2022-11-29T01:54:18.074Z,26.60
2022-11-29T01:56:47.290Z,25.95
2022-11-29T01:59:18.457Z,24.63
2022-11-29T02:01:45.346Z,23.67
2022-11-29T02:04:12.235Z,22.98
2022-11-29T02:06:39.712Z,22.75
2022-11-29T02:09:19.625Z,32.75
2022-11-29T02:12:03.379Z,26.10
2022-11-29T02:15:06.780Z,25.85
2022-11-29T02:17:58.967Z,24.60
2022-11-29T02:21:03.292Z,24.67
2022-11-29T02:23:39.421Z,27.88
2022-11-29T02:26:36.896Z,25.67
2022-11-29T02:29:10.059Z,26.83
2022-11-29T02:31:57.502Z,22.92
2022-11-29T02:34:51.973Z,20.70
2022-11-29T02:37:28.645Z,22.27
2022-11-29T02:40:30.656Z,19.90
2022-11-29T02:43:17.391Z,19.52
2022-11-29T02:46:14.643Z,19.00
2022-11-29T02:49:02.588Z,21.05
2022-11-29T02:51:46.532Z,20.65
2022-11-29T02:54:23.858Z,21.77
2022-11-29T02:57:02.001Z,19.65
2022-11-29T03:00:01.011Z,19.95
2022-11-29T03:02:48.257Z,21.88
2022-11-29T03:05:20.642Z,19.75
2022-11-29T03:07:53.351Z,22.40
2022-11-29T03:10:23.121Z,24.48
2022-11-29T03:12:53.322Z,28.65
2022-11-29T03:15:19.891Z,20.40
2022-11-29T03:18:28.061Z,21.70
2022-11-29T03:21:09.981Z,21.20
2022-11-29T03:23:47.279Z,21.63
2022-11-29T03:26:32.291Z,24.05
2022-11-29T03:29:35.935Z,22.75
2022-11-29T03:32:06.852Z,21.52
2022-11-29T03:34:57.359Z,21.17
2022-11-29T03:37:32.866Z,20.40
2022-11-29T03:40:31.647Z,22.23
2022-11-29T03:43:14.189Z,20.48
2022-11-29T03:46:07.376Z,19.73
2022-11-29T03:48:48.256Z,21.35
2022-11-29T03:51:54.735Z,20.83
2022-11-29T03:55:02.721Z,37.75
2022-11-29T03:57:39.327Z,23.00
2022-11-29T04:00:09.328Z,22.30
2022-11-29T04:02:53.886Z,26.80
2022-11-29T04:05:38.753Z,55.42
2022-11-29T04:08:17.519Z,24.33
2022-11-29T04:11:05.559Z,27.02
2022-11-29T04:14:06.523Z,23.95
2022-11-29T04:16:51.792Z,23.75
2022-11-29T04:19:45.863Z,27.00
2022-11-29T04:22:24.560Z,23.80
2022-11-29T04:25:32.124Z,26.50
2022-11-29T04:28:41.186Z,25.25
2022-11-29T04:31:29.009Z,24.88
2022-11-29T04:34:25.731Z,23.65
2022-11-29T04:37:02.494Z,24.75
2022-11-29T04:39:50.363Z,30.20
2022-11-29T04:42:16.909Z,25.88
2022-11-29T04:45:08.113Z,25.73
2022-11-29T04:47:43.702Z,29.77
2022-11-29T04:50:42.047Z,26.88
2022-11-29T04:53:31.982Z,28.88
2022-11-29T04:56:15.166Z,28.88
2022-11-29T04:58:51.962Z,32.40
2022-11-29T05:01:46.357Z,34.35
2022-11-29T05:04:46.743Z,31.10
2022-11-29T05:07:24.869Z,30.27
2022-11-29T05:09:59.574Z,28.60
2022-11-29T05:12:48.075Z,30.50
2022-11-29T05:15:35.275Z,27.65
2022-11-29T05:18:34.245Z,39.05
2022-11-29T05:21:13.905Z,36.05
2022-11-29T05:23:46.308Z,27.42
2022-11-29T05:26:22.752Z,29.05
2022-11-29T05:29:10.148Z,30.55
2022-11-29T05:32:09.991Z,30.63
2022-11-29T05:35:03.056Z,28.45
2022-11-29T05:37:44.163Z,34.10
2022-11-29T05:40:13.700Z,27.60
2022-11-29T05:43:17.595Z,33.22
2022-11-29T05:45:57.843Z,32.35
2022-11-29T05:48:33.612Z,34.30
2022-11-29T05:51:27.468Z,35.33
2022-11-29T05:54:06.095Z,32.63
2022-11-29T05:56:53.959Z,28.13
2022-11-29T05:59:27.738Z,29.95
2022-11-29T06:02:03.218Z,46.88
2022-11-29T06:04:57.205Z,43.97
2022-11-29T06:07:38.714Z,37.58
2022-11-29T06:10:29.303Z,41.28
2022-11-29T06:13:01.867Z,35.65
2022-11-29T06:15:57.365Z,31.63
2022-11-29T06:18:33.435Z,38.92
2022-11-29T06:21:23.140Z,36.88
2022-11-29T06:23:49.793Z,35.55
2022-11-29T06:26:24.254Z,43.00
2022-11-29T06:29:12.620Z,37.80
2022-11-29T06:31:46.349Z,33.22
2022-11-29T06:34:55.489Z,34.50
2022-11-29T06:37:41.935Z,35.83
2022-11-29T06:40:12.095Z,36.78
2022-11-29T06:42:38.555Z,39.00
2022-11-29T06:45:05.810Z,34.75
2022-11-29T06:47:46.534Z,37.47
2022-11-29T06:50:34.728Z,31.92
2022-11-29T06:53:39.998Z,32.80
2022-11-29T06:56:26.532Z,30.98
2022-11-29T06:59:06.791Z,32.28
2022-11-29T07:01:39.815Z,32.03
2022-11-29T07:04:33.746Z,34.15
2022-11-29T07:07:00.500Z,36.25
2022-11-29T07:09:33.581Z,36.92
2022-11-29T07:12:00.712Z,38.03
2022-11-29T07:14:27.536Z,35.20
2022-11-29T07:17:20.264Z,36.35
2022-11-29T07:20:09.540Z,33.53
2022-11-29T07:22:49.549Z,34.60
2022-11-29T07:25:31.306Z,41.28
2022-11-29T07:28:19.951Z,37.33
2022-11-29T07:31:08.519Z,31.48
2022-11-29T07:33:58.762Z,37.08
2022-11-29T07:36:28.234Z,34.13
2022-11-29T07:39:07.871Z,34.95
2022-11-29T07:41:44.302Z,35.08
2022-11-29T07:44:35.464Z,31.83
2022-11-29T07:47:02.121Z,34.45
2022-11-29T07:49:32.519Z,31.38
2022-11-29T07:51:59.151Z,34.05
2022-11-29T07:54:25.699Z,32.42
2022-11-29T07:56:52.212Z,32.33
2022-11-29T07:59:18.808Z,35.97
2022-11-29T08:01:46.425Z,33.85
2022-11-29T08:04:13.893Z,37.53
2022-11-29T08:06:40.395Z,33.88
2022-11-29T08:09:07.628Z,31.27
2022-11-29T08:11:34.237Z,32.17
2022-11-29T08:14:02.184Z,30.02
2022-11-29T08:16:29.391Z,30.40
2022-11-29T08:18:55.989Z,36.58
2022-11-29T08:21:22.712Z,30.20
2022-11-29T08:23:50.781Z,35.05
2022-11-29T08:26:18.842Z,31.90
2022-11-29T08:28:45.732Z,31.15
2022-11-29T08:31:13.710Z,30.52
2022-11-29T08:33:43.116Z,32.33
2022-11-29T08:36:20.126Z,37.78
2022-11-29T08:38:47.401Z,32.45
2022-11-29T08:41:16.214Z,34.22
2022-11-29T08:43:43.677Z,35.13
2022-11-29T08:46:16.712Z,31.52
2022-11-29T08:48:53.826Z,33.75
2022-11-29T08:51:21.575Z,38.53
2022-11-29T08:53:51.559Z,40.55
2022-11-29T08:59:06.080Z,34.30
2022-11-29T09:01:32.802Z,29.23
2022-11-29T09:03:59.421Z,35.28
2022-11-29T09:06:28.017Z,36.78
2022-11-29T09:08:56.454Z,29.27
2022-11-29T09:11:24.939Z,28.95
2022-11-29T09:13:55.036Z,31.55
2022-11-29T09:16:24.074Z,29.27
2022-11-29T09:18:52.494Z,29.42
2022-11-29T09:21:19.070Z,25.85
2022-11-29T09:23:46.172Z,31.85
2022-11-29T09:26:18.813Z,29.05
2022-11-29T09:28:46.787Z,27.50
2022-11-29T09:31:15.491Z,26.27
2022-11-29T09:33:42.377Z,28.38
2022-11-29T09:36:11.462Z,26.08
2022-11-29T09:38:38.585Z,24.77
2022-11-29T09:41:23.963Z,24.75
2022-11-29T09:44:02.424Z,26.55
2022-11-29T09:46:45.916Z,24.00
2022-11-29T09:49:55.237Z,25.77
2022-11-29T09:52:43.958Z,24.92
2022-11-29T09:55:34.292Z,25.33
2022-11-29T09:58:03.788Z,27.30
2022-11-29T10:00:35.320Z,29.95
2022-11-29T10:03:12.607Z,27.88
2022-11-29T10:05:46.975Z,26.88
2022-11-29T10:08:26.623Z,27.85
2022-11-29T10:11:33.152Z,24.42
2022-11-29T10:14:22.522Z,21.75
2022-11-29T10:17:08.281Z,22.10
2022-11-29T10:19:47.588Z,20.20
2022-11-29T10:22:18.108Z,20.83
2022-11-29T10:24:49.382Z,20.77
2022-11-29T10:27:22.845Z,21.35
2022-11-29T10:29:51.295Z,22.85
2022-11-29T10:32:21.157Z,21.90
2022-11-29T10:34:49.412Z,21.60
2022-11-29T10:37:20.414Z,22.25
2022-11-29T10:39:58.640Z,22.00
2022-11-29T10:42:46.495Z,22.67
2022-11-29T10:45:24.959Z,20.70
2022-11-29T10:47:53.688Z,23.35
2022-11-29T10:50:25.892Z,23.27
2022-11-29T10:52:59.916Z,22.25
2022-11-29T10:55:31.020Z,22.95
2022-11-29T10:58:15.618Z,22.73
2022-11-29T11:00:50.149Z,21.52
2022-11-29T11:03:42.682Z,22.43
2022-11-29T11:06:17.188Z,23.55
2022-11-29T11:08:48.543Z,23.53
2022-11-29T11:11:24.866Z,23.05
2022-11-29T11:14:06.005Z,23.30
2022-11-29T11:16:37.351Z,26.40
2022-11-29T11:19:25.614Z,23.83
2022-11-29T11:21:52.268Z,27.98
2022-11-29T11:24:28.837Z,23.25
2022-11-29T11:26:56.360Z,22.52
2022-11-29T11:29:34.128Z,25.05
2022-11-29T11:32:00.925Z,21.98
2022-11-29T11:34:27.431Z,21.85
2022-11-29T11:37:14.758Z,23.27
2022-11-29T11:39:42.621Z,23.73
2022-11-29T11:42:33.897Z,23.13
2022-11-29T11:45:02.090Z,21.92
2022-11-29T11:47:32.737Z,21.48
2022-11-29T11:50:02.370Z,21.05
2022-11-29T11:52:52.371Z,18.50
2022-11-29T11:55:21.908Z,21.60
2022-11-29T11:58:09.887Z,19.73
2022-11-29T12:01:05.476Z,18.45
2022-11-29T12:03:43.846Z,21.88
2022-11-29T12:06:31.754Z,21.00
2022-11-29T12:09:24.867Z,21.92
2022-11-29T12:12:01.856Z,19.10
2022-11-29T12:14:40.197Z,18.95
2022-11-29T12:17:22.788Z,22.70
2022-11-29T12:20:01.391Z,18.35
2022-11-29T12:22:37.405Z,19.00
2022-11-29T12:25:10.524Z,19.13
2022-11-29T12:27:37.087Z,18.67
2022-11-29T12:30:12.117Z,18.23
2022-11-29T12:33:06.171Z,19.73
2022-11-29T12:36:20.664Z,18.75
2022-11-29T12:38:59.320Z,18.67
2022-11-29T12:41:40.889Z,19.65
2022-11-29T12:44:19.291Z,18.88
2022-11-29T12:47:13.252Z,19.25
2022-11-29T12:50:28.661Z,22.42
2022-11-29T12:53:27.078Z,20.15
2022-11-29T12:56:15.695Z,18.60
2022-11-29T12:58:55.776Z,21.33
2022-11-29T13:01:31.221Z,18.90
2022-11-29T13:06:43.400Z,18.17
2022-11-29T13:09:43.890Z,19.77
2022-11-29T13:12:20.586Z,19.85
2022-11-29T13:14:59.846Z,19.73
2022-11-29T13:17:45.287Z,19.00
2022-11-29T13:20:50.285Z,19.17
2022-11-29T13:23:39.022Z,21.42
2022-11-29T13:26:12.575Z,19.70
2022-11-29T13:28:42.105Z,24.05
2022-11-29T13:31:15.500Z,21.30
2022-11-29T13:34:03.201Z,24.90
2022-11-29T13:36:44.880Z,21.08
2022-11-29T13:39:33.205Z,21.27
2022-11-29T13:42:21.957Z,22.17
2022-11-29T13:44:54.862Z,21.73
2022-11-29T13:47:22.427Z,22.13
2022-11-29T13:50:44.929Z,21.92
2022-11-29T13:53:16.743Z,22.42
2022-11-29T13:56:02.554Z,21.90
2022-11-29T14:01:05.285Z,20.73
2022-11-29T14:03:38.672Z,21.90
2022-11-29T14:06:21.127Z,21.83
2022-11-29T14:09:19.819Z,23.35
2022-11-29T14:11:43.306Z,25.08
2022-11-29T14:14:25.076Z,24.42
2022-11-29T14:17:03.079Z,23.08
2022-11-29T14:19:35.532Z,23.83
2022-11-29T14:22:02.037Z,22.13
2022-11-29T14:24:37.891Z,24.20
2022-11-29T14:27:07.719Z,24.23
2022-11-29T14:29:49.789Z,23.48
2022-11-29T14:32:49.442Z,24.05
2022-11-29T14:35:26.725Z,23.30
2022-11-29T14:38:11.535Z,24.42
2022-11-29T14:40:41.260Z,24.13
2022-11-29T14:43:26.441Z,24.95
2022-11-29T14:46:15.689Z,23.92
2022-11-29T14:48:47.514Z,24.63
2022-11-29T14:51:17.313Z,24.90
2022-11-29T14:53:47.040Z,23.83
2022-11-29T14:56:28.752Z,24.13
2022-11-29T14:59:32.915Z,23.42
2022-11-29T15:02:07.113Z,23.92
2022-11-29T15:04:36.395Z,24.98
2022-11-29T15:07:04.554Z,23.95
2022-11-29T15:09:33.375Z,22.50
2022-11-29T15:12:04.648Z,23.90
2022-11-29T15:14:52.307Z,22.08
2022-11-29T15:17:37.727Z,23.67
2022-11-29T15:20:32.367Z,21.75
2022-11-29T15:23:01.714Z,20.45
2022-11-29T15:25:31.748Z,20.92
2022-11-29T15:28:00.919Z,22.05
2022-11-29T15:30:27.593Z,22.48
2022-11-29T15:32:54.340Z,22.85
2022-11-29T15:35:21.132Z,21.85
2022-11-29T15:37:49.739Z,23.70
2022-11-29T15:40:19.807Z,20.63
2022-11-29T15:43:01.875Z,19.70
2022-11-29T15:45:30.540Z,20.08
2022-11-29T15:48:21.572Z,20.23
2022-11-29T15:51:21.251Z,20.85
2022-11-29T15:54:11.290Z,19.00
2022-11-29T15:56:54.515Z,21.80
2022-11-29T15:59:30.105Z,19.98
2022-11-29T16:02:00.410Z,18.65
2022-11-29T16:04:27.244Z,19.80
2022-11-29T16:06:55.344Z,17.13
2022-11-29T16:09:36.457Z,18.88
2022-11-29T16:12:03.524Z,18.85
2022-11-29T16:14:30.101Z,20.98
2022-11-29T16:17:00.535Z,20.30
2022-11-29T16:19:37.898Z,20.23
2022-11-29T16:22:10.529Z,20.08
2022-11-29T16:24:48.041Z,19.73
2022-11-29T16:27:14.984Z,19.90
2022-11-29T16:29:45.225Z,21.48
2022-11-29T16:32:29.966Z,18.83
2022-11-29T16:35:03.993Z,17.92
2022-11-29T16:37:38.377Z,19.98
2022-11-29T16:40:05.692Z,23.60
2022-11-29T16:42:33.660Z,23.27
2022-11-29T16:45:05.506Z,28.58
2022-11-29T16:47:47.500Z,26.75
2022-11-29T16:50:18.220Z,25.55
2022-11-29T16:52:45.642Z,27.50
2022-11-29T16:55:12.512Z,25.90
2022-11-29T16:57:39.836Z,25.90
2022-11-29T17:00:11.224Z,29.98
2022-11-29T17:02:37.872Z,28.52
2022-11-29T17:05:04.715Z,29.80
2022-11-29T17:07:35.276Z,29.52
2022-11-29T17:10:02.267Z,27.73
2022-11-29T17:12:28.756Z,31.30
2022-11-29T17:14:55.294Z,30.02
2022-11-29T17:17:21.839Z,29.20
2022-11-29T17:19:48.353Z,31.88
2022-11-29T17:22:15.111Z,31.35
2022-11-29T17:24:47.441Z,29.63
2022-11-29T17:27:14.490Z,30.33
2022-11-29T17:29:41.001Z,30.70
2022-11-29T17:32:07.596Z,36.65
2022-11-29T17:34:35.245Z,29.25
2022-11-29T17:37:05.258Z,29.90
2022-11-29T17:39:32.981Z,32.25
2022-11-29T17:41:59.598Z,30.80
2022-11-29T17:44:26.248Z,29.80
2022-11-29T17:46:52.783Z,28.80
2022-11-29T17:49:19.449Z,29.45
2022-11-29T17:51:53.939Z,27.30
2022-11-29T17:54:21.604Z,26.98
2022-11-29T17:56:48.130Z,27.30
2022-11-29T17:59:14.720Z,28.67
2022-11-29T18:01:41.652Z,26.77
2022-11-29T18:04:08.608Z,25.83
2022-11-29T18:06:40.197Z,27.30
2022-11-29T18:09:08.863Z,26.95
2022-11-29T18:11:46.883Z,30.95
2022-11-29T18:14:18.072Z,28.25
2022-11-29T18:16:45.422Z,28.58
2022-11-29T18:19:14.526Z,26.70
2022-11-29T18:21:41.253Z,28.23
2022-11-29T18:24:08.415Z,27.25
2022-11-29T18:26:36.252Z,28.20
2022-11-29T18:29:03.865Z,28.85
2022-11-29T18:31:32.940Z,27.35
2022-11-29T18:34:01.257Z,29.17
2022-11-29T18:36:29.205Z,27.25
2022-11-29T18:38:59.036Z,28.40
2022-11-29T18:41:28.192Z,30.00
2022-11-29T18:43:59.100Z,28.90
2022-11-29T18:46:32.136Z,29.27
2022-11-29T18:49:01.011Z,29.15
2022-11-29T18:51:29.280Z,29.30
2022-11-29T18:53:56.426Z,28.27
2022-11-29T18:56:25.663Z,29.25
2022-11-29T18:59:04.656Z,30.05
2022-11-29T19:01:34.331Z,32.00
2022-11-29T19:04:01.717Z,31.55
2022-11-29T19:06:39.198Z,31.77
2022-11-29T19:09:09.917Z,31.70
2022-11-29T19:11:36.577Z,36.78
2022-11-29T19:14:05.953Z,33.33
2022-11-29T19:16:34.574Z,31.92
2022-11-29T19:19:01.759Z,35.25
2022-11-29T19:21:31.838Z,32.13
2022-11-29T19:24:03.321Z,34.72
2022-11-29T19:26:32.424Z,30.98
2022-11-29T19:29:00.782Z,34.08
2022-11-29T19:31:27.904Z,31.15
2022-11-29T19:33:55.399Z,37.35
2022-11-29T19:36:27.383Z,36.28
2022-11-29T19:38:54.696Z,32.72
2022-11-29T19:41:24.463Z,33.75
2022-11-29T19:43:51.565Z,33.92
2022-11-29T19:46:19.865Z,31.50
2022-11-29T19:48:47.133Z,34.85
2022-11-29T19:51:17.402Z,36.35
2022-11-29T19:53:45.524Z,34.38
2022-11-29T19:56:16.795Z,35.55
2022-11-29T19:58:44.057Z,40.92
2022-11-29T20:01:22.951Z,34.70
2022-11-29T20:03:50.188Z,33.85
2022-11-29T20:06:17.613Z,34.75
2022-11-29T20:08:45.013Z,37.08
2022-11-29T20:11:20.159Z,35.88
2022-11-29T20:13:52.062Z,33.67
2022-11-29T20:16:19.251Z,36.60
2022-11-29T20:18:50.988Z,34.00
2022-11-29T20:21:20.410Z,35.72
2022-11-29T20:23:47.299Z,37.88
2022-11-29T20:26:17.680Z,35.75
2022-11-29T20:28:45.031Z,38.10
2022-11-29T20:31:15.802Z,38.30
2022-11-29T20:33:44.404Z,36.63
2022-11-29T20:36:48.626Z,36.13
2022-11-29T20:39:41.106Z,36.83
2022-11-29T20:42:49.900Z,34.58
2022-11-29T20:45:16.959Z,36.15
2022-11-29T20:47:46.483Z,33.88
2022-11-29T20:50:25.011Z,37.53
2022-11-29T20:53:10.227Z,35.60
2022-11-29T20:55:42.439Z,36.58
2022-11-29T20:58:13.057Z,34.70
2022-11-29T21:00:39.534Z,37.50
2022-11-29T21:03:05.989Z,36.60
2022-11-29T21:05:36.679Z,40.92
2022-11-29T21:08:03.226Z,39.08
2022-11-29T21:10:29.764Z,36.42
2022-11-29T21:12:56.635Z,41.42
2022-11-29T21:15:23.441Z,43.80
2022-11-29T21:17:50.394Z,39.63
2022-11-29T21:20:21.021Z,36.80
2022-11-29T21:23:05.688Z,35.05
2022-11-29T21:25:47.433Z,36.83
2022-11-29T21:28:15.883Z,35.50
2022-11-29T21:30:43.944Z,35.88
2022-11-29T21:33:14.899Z,33.10
2022-11-29T21:35:41.476Z,30.85
2022-11-29T21:38:14.568Z,31.45
2022-11-29T21:40:41.220Z,31.42
2022-11-29T21:43:07.687Z,33.38
2022-11-29T21:45:34.111Z,33.22
2022-11-29T21:48:01.048Z,34.20
2022-11-29T21:50:27.688Z,33.35
2022-11-29T21:52:54.142Z,34.75
2022-11-29T21:55:20.632Z,32.92
2022-11-29T21:57:47.152Z,34.33
2022-11-29T22:00:14.262Z,34.78
2022-11-29T22:02:40.984Z,34.22
2022-11-29T22:05:09.600Z,34.67
2022-11-29T22:07:36.209Z,37.97
2022-11-29T22:10:10.008Z,35.45
2022-11-29T22:12:42.877Z,31.58
2022-11-29T22:15:19.030Z,31.73
2022-11-29T22:17:50.059Z,32.03
2022-11-29T22:20:16.684Z,38.90
2022-11-29T22:22:43.193Z,35.47
2022-11-29T22:25:09.806Z,35.80
2022-11-29T22:27:36.802Z,35.08
2022-11-29T22:30:03.490Z,35.15
2022-11-29T22:32:29.989Z,35.00
2022-11-29T22:34:56.529Z,35.20
2022-11-29T22:37:23.079Z,33.58
2022-11-29T22:39:49.781Z,34.85
2022-11-29T22:42:16.287Z,38.17
2022-11-29T22:44:42.788Z,127.70
2022-11-29T22:47:09.312Z,42.05
2022-11-29T22:49:35.911Z,32.47
2022-11-29T22:52:02.442Z,30.52
2022-11-29T22:54:29.944Z,30.98
2022-11-29T22:56:56.404Z,29.77
2022-11-29T22:59:22.866Z,29.00
2022-11-29T23:01:49.454Z,28.42
2022-11-29T23:04:15.986Z,26.30
2022-11-29T23:06:44.686Z,28.65
2022-11-29T23:09:19.766Z,27.55
2022-11-29T23:11:50.916Z,26.30
2022-11-29T23:14:17.986Z,24.83
2022-11-29T23:16:44.545Z,24.98
2022-11-29T23:19:12.283Z,24.20
2022-11-29T23:21:40.623Z,23.95
2022-11-29T23:24:07.551Z,24.73
2022-11-29T23:26:40.812Z,24.15
2022-11-29T23:29:13.208Z,22.90
2022-11-29T23:31:39.877Z,23.08
2022-11-29T23:34:06.493Z,21.67
2022-11-29T23:36:33.759Z,21.58
2022-11-29T23:39:04.783Z,21.92
2022-11-29T23:41:31.285Z,21.20
2022-11-29T23:43:59.637Z,21.20
2022-11-29T23:46:26.350Z,20.10
2022-11-29T23:48:53.135Z,20.02
2022-11-29T23:51:20.238Z,19.08
2022-11-29T23:53:51.185Z,19.77
2022-11-29T23:56:19.592Z,18.38
2022-11-29T23:58:46.909Z,18.73
